sensor_id;sensor_type;location;lat;lon;timestamp;P1;durP1;ratioP1;P2;durP2;ratioP2
70312;SDS011;57723;51.698;5.344;2023-04-06T00:02:21;3.20;;;1.10;;
70312;SDS011;57723;51.698;5.344;2023-04-06T00:04:47;2.27;;;0.90;;
70312;SDS011;57723;51.698;5.344;2023-04-06T00:07:12;1.63;;;0.93;;
70312;SDS011;57723;51.698;5.344;2023-04-06T00:09:40;3.80;;;1.10;;
70312;SDS011;57723;51.698;5.344;2023-04-06T00:12:05;4.07;;;1.10;;
70312;SDS011;57723;51.698;5.344;2023-04-06T00:14:33;3.50;;;1.00;;
70312;SDS011;57723;51.698;5.344;2023-04-06T00:16:59;4.55;;;1.10;;
70312;SDS011;57723;51.698;5.344;2023-04-06T00:19:24;2.17;;;1.10;;
70312;SDS011;57723;51.698;5.344;2023-04-06T00:21:49;2.43;;;1.00;;
70312;SDS011;57723;51.698;5.344;2023-04-06T00:24:14;3.37;;;0.87;;
70312;SDS011;57723;51.698;5.344;2023-04-06T00:26:40;5.30;;;1.03;;
70312;SDS011;57723;51.698;5.344;2023-04-06T00:29:05;2.17;;;1.00;;
70312;SDS011;57723;51.698;5.344;2023-04-06T00:31:30;2.30;;;1.10;;
70312;SDS011;57723;51.698;5.344;2023-04-06T00:33:56;7.23;;;1.30;;
70312;SDS011;57723;51.698;5.344;2023-04-06T00:36:21;2.33;;;1.00;;
70312;SDS011;57723;51.698;5.344;2023-04-06T00:38:46;1.67;;;0.90;;
70312;SDS011;57723;51.698;5.344;2023-04-06T00:41:11;2.00;;;1.00;;
70312;SDS011;57723;51.698;5.344;2023-04-06T00:43:37;7.60;;;1.00;;
70312;SDS011;57723;51.698;5.344;2023-04-06T00:46:02;2.67;;;1.00;;
70312;SDS011;57723;51.698;5.344;2023-04-06T00:48:27;3.15;;;1.02;;
70312;SDS011;57723;51.698;5.344;2023-04-06T00:50:52;2.40;;;1.00;;
70312;SDS011;57723;51.698;5.344;2023-04-06T00:53:18;2.93;;;1.07;;
70312;SDS011;57723;51.698;5.344;2023-04-06T00:55:43;3.73;;;1.10;;
70312;SDS011;57723;51.698;5.344;2023-04-06T00:58:08;1.67;;;1.00;;
70312;SDS011;57723;51.698;5.344;2023-04-06T01:00:34;1.80;;;0.93;;
70312;SDS011;57723;51.698;5.344;2023-04-06T01:02:59;2.87;;;0.97;;
70312;SDS011;57723;51.698;5.344;2023-04-06T01:05:24;5.20;;;1.20;;
70312;SDS011;57723;51.698;5.344;2023-04-06T01:07:50;2.33;;;0.93;;
70312;SDS011;57723;51.698;5.344;2023-04-06T01:10:25;2.50;;;1.00;;
70312;SDS011;57723;51.698;5.344;2023-04-06T01:12:53;1.75;;;1.00;;
70312;SDS011;57723;51.698;5.344;2023-04-06T01:15:19;1.03;;;0.80;;
70312;SDS011;57723;51.698;5.344;2023-04-06T01:17:45;1.90;;;0.90;;
70312;SDS011;57723;51.698;5.344;2023-04-06T01:20:10;1.80;;;1.10;;
70312;SDS011;57723;51.698;5.344;2023-04-06T01:22:36;2.75;;;1.20;;
70312;SDS011;57723;51.698;5.344;2023-04-06T01:25:01;3.67;;;0.90;;
70312;SDS011;57723;51.698;5.344;2023-04-06T01:27:26;1.83;;;1.00;;
70312;SDS011;57723;51.698;5.344;2023-04-06T01:29:53;1.60;;;0.97;;
70312;SDS011;57723;51.698;5.344;2023-04-06T01:32:18;1.67;;;1.00;;
70312;SDS011;57723;51.698;5.344;2023-04-06T01:34:43;2.08;;;1.00;;
70312;SDS011;57723;51.698;5.344;2023-04-06T01:37:08;2.43;;;1.40;;
70312;SDS011;57723;51.698;5.344;2023-04-06T01:39:34;15.83;;;1.50;;
70312;SDS011;57723;51.698;5.344;2023-04-06T01:41:59;2.27;;;1.00;;
70312;SDS011;57723;51.698;5.344;2023-04-06T01:44:25;4.20;;;0.80;;
70312;SDS011;57723;51.698;5.344;2023-04-06T01:46:50;4.43;;;1.63;;
70312;SDS011;57723;51.698;5.344;2023-04-06T01:49:15;6.10;;;1.47;;
70312;SDS011;57723;51.698;5.344;2023-04-06T01:51:40;1.70;;;1.10;;
70312;SDS011;57723;51.698;5.344;2023-04-06T01:54:06;5.83;;;1.23;;
70312;SDS011;57723;51.698;5.344;2023-04-06T01:56:31;2.03;;;0.90;;
70312;SDS011;57723;51.698;5.344;2023-04-06T01:58:56;2.70;;;0.90;;
70312;SDS011;57723;51.698;5.344;2023-04-06T02:01:22;3.60;;;1.10;;
70312;SDS011;57723;51.698;5.344;2023-04-06T02:03:47;1.63;;;0.90;;
70312;SDS011;57723;51.698;5.344;2023-04-06T02:06:12;4.27;;;1.00;;
70312;SDS011;57723;51.698;5.344;2023-04-06T02:08:38;2.80;;;0.80;;
70312;SDS011;57723;51.698;5.344;2023-04-06T02:11:03;3.85;;;1.00;;
70312;SDS011;57723;51.698;5.344;2023-04-06T02:13:28;1.53;;;0.80;;
70312;SDS011;57723;51.698;5.344;2023-04-06T02:15:54;4.33;;;0.70;;
70312;SDS011;57723;51.698;5.344;2023-04-06T02:18:20;2.03;;;0.80;;
70312;SDS011;57723;51.698;5.344;2023-04-06T02:20:45;1.75;;;0.90;;
70312;SDS011;57723;51.698;5.344;2023-04-06T02:23:10;2.43;;;1.00;;
70312;SDS011;57723;51.698;5.344;2023-04-06T02:25:36;5.97;;;1.10;;
70312;SDS011;57723;51.698;5.344;2023-04-06T02:28:01;2.40;;;1.03;;
70312;SDS011;57723;51.698;5.344;2023-04-06T02:30:26;2.30;;;1.20;;
70312;SDS011;57723;51.698;5.344;2023-04-06T02:32:52;2.67;;;1.10;;
70312;SDS011;57723;51.698;5.344;2023-04-06T02:35:17;4.10;;;1.00;;
70312;SDS011;57723;51.698;5.344;2023-04-06T02:37:43;2.00;;;0.95;;
70312;SDS011;57723;51.698;5.344;2023-04-06T02:40:08;4.50;;;1.07;;
70312;SDS011;57723;51.698;5.344;2023-04-06T02:42:34;1.50;;;0.90;;
70312;SDS011;57723;51.698;5.344;2023-04-06T02:45:00;1.60;;;1.07;;
70312;SDS011;57723;51.698;5.344;2023-04-06T02:47:25;5.32;;;1.10;;
70312;SDS011;57723;51.698;5.344;2023-04-06T02:49:53;2.15;;;1.00;;
70312;SDS011;57723;51.698;5.344;2023-04-06T02:52:19;2.85;;;1.02;;
70312;SDS011;57723;51.698;5.344;2023-04-06T02:54:45;3.90;;;1.10;;
70312;SDS011;57723;51.698;5.344;2023-04-06T02:57:10;3.00;;;1.10;;
70312;SDS011;57723;51.698;5.344;2023-04-06T02:59:35;4.77;;;1.13;;
70312;SDS011;57723;51.698;5.344;2023-04-06T03:02:00;3.33;;;1.63;;
70312;SDS011;57723;51.698;5.344;2023-04-06T03:04:25;3.07;;;1.00;;
70312;SDS011;57723;51.698;5.344;2023-04-06T03:06:51;2.23;;;0.90;;
70312;SDS011;57723;51.698;5.344;2023-04-06T03:09:17;2.28;;;0.90;;
70312;SDS011;57723;51.698;5.344;2023-04-06T03:11:42;2.63;;;1.00;;
70312;SDS011;57723;51.698;5.344;2023-04-06T03:14:08;3.83;;;1.15;;
70312;SDS011;57723;51.698;5.344;2023-04-06T03:16:33;4.27;;;0.93;;
70312;SDS011;57723;51.698;5.344;2023-04-06T03:18:58;3.73;;;1.23;;
70312;SDS011;57723;51.698;5.344;2023-04-06T03:21:23;12.50;;;1.20;;
70312;SDS011;57723;51.698;5.344;2023-04-06T03:23:49;2.73;;;1.00;;
70312;SDS011;57723;51.698;5.344;2023-04-06T03:26:20;2.75;;;1.00;;
70312;SDS011;57723;51.698;5.344;2023-04-06T03:28:46;3.08;;;1.05;;
70312;SDS011;57723;51.698;5.344;2023-04-06T03:31:11;2.53;;;1.20;;
70312;SDS011;57723;51.698;5.344;2023-04-06T03:33:37;5.47;;;1.10;;
70312;SDS011;57723;51.698;5.344;2023-04-06T03:36:02;2.70;;;1.20;;
70312;SDS011;57723;51.698;5.344;2023-04-06T03:38:27;2.30;;;0.90;;
70312;SDS011;57723;51.698;5.344;2023-04-06T03:40:52;4.57;;;1.00;;
70312;SDS011;57723;51.698;5.344;2023-04-06T03:43:18;3.30;;;1.33;;
70312;SDS011;57723;51.698;5.344;2023-04-06T03:45:43;1.90;;;0.90;;
70312;SDS011;57723;51.698;5.344;2023-04-06T03:48:08;2.80;;;1.00;;
70312;SDS011;57723;51.698;5.344;2023-04-06T03:50:33;2.13;;;0.93;;
70312;SDS011;57723;51.698;5.344;2023-04-06T03:52:59;4.03;;;1.20;;
70312;SDS011;57723;51.698;5.344;2023-04-06T03:55:26;5.80;;;1.08;;
70312;SDS011;57723;51.698;5.344;2023-04-06T03:57:51;5.03;;;1.23;;
70312;SDS011;57723;51.698;5.344;2023-04-06T04:00:17;2.97;;;1.30;;
70312;SDS011;57723;51.698;5.344;2023-04-06T04:02:42;3.33;;;1.30;;
70312;SDS011;57723;51.698;5.344;2023-04-06T04:05:07;8.63;;;1.20;;
70312;SDS011;57723;51.698;5.344;2023-04-06T04:07:33;2.20;;;1.17;;
70312;SDS011;57723;51.698;5.344;2023-04-06T04:09:58;2.87;;;1.30;;
70312;SDS011;57723;51.698;5.344;2023-04-06T04:12:23;2.42;;;1.33;;
70312;SDS011;57723;51.698;5.344;2023-04-06T04:14:49;2.08;;;1.20;;
70312;SDS011;57723;51.698;5.344;2023-04-06T04:17:14;2.40;;;1.20;;
70312;SDS011;57723;51.698;5.344;2023-04-06T04:19:40;3.00;;;1.03;;
70312;SDS011;57723;51.698;5.344;2023-04-06T04:22:05;3.50;;;1.60;;
70312;SDS011;57723;51.698;5.344;2023-04-06T04:24:31;3.63;;;1.23;;
70312;SDS011;57723;51.698;5.344;2023-04-06T04:26:57;3.23;;;1.30;;
70312;SDS011;57723;51.698;5.344;2023-04-06T04:29:22;4.40;;;1.50;;
70312;SDS011;57723;51.698;5.344;2023-04-06T04:31:48;2.67;;;1.45;;
70312;SDS011;57723;51.698;5.344;2023-04-06T04:34:14;3.33;;;1.40;;
70312;SDS011;57723;51.698;5.344;2023-04-06T04:36:40;4.00;;;1.13;;
70312;SDS011;57723;51.698;5.344;2023-04-06T04:39:06;3.35;;;1.42;;
70312;SDS011;57723;51.698;5.344;2023-04-06T04:41:32;2.37;;;1.13;;
70312;SDS011;57723;51.698;5.344;2023-04-06T04:43:57;2.57;;;1.20;;
70312;SDS011;57723;51.698;5.344;2023-04-06T04:46:22;2.73;;;1.20;;
70312;SDS011;57723;51.698;5.344;2023-04-06T04:48:48;2.00;;;1.30;;
70312;SDS011;57723;51.698;5.344;2023-04-06T04:51:13;4.47;;;1.30;;
70312;SDS011;57723;51.698;5.344;2023-04-06T04:53:38;2.72;;;1.08;;
70312;SDS011;57723;51.698;5.344;2023-04-06T04:56:04;2.00;;;1.07;;
70312;SDS011;57723;51.698;5.344;2023-04-06T04:58:29;2.20;;;1.20;;
70312;SDS011;57723;51.698;5.344;2023-04-06T05:00:55;2.72;;;1.20;;
70312;SDS011;57723;51.698;5.344;2023-04-06T05:03:24;4.78;;;1.50;;
70312;SDS011;57723;51.698;5.344;2023-04-06T05:05:49;1.98;;;1.40;;
70312;SDS011;57723;51.698;5.344;2023-04-06T05:08:15;4.83;;;2.93;;
70312;SDS011;57723;51.698;5.344;2023-04-06T05:10:40;11.43;;;10.30;;
70312;SDS011;57723;51.698;5.344;2023-04-06T05:13:06;26.53;;;24.83;;
70312;SDS011;57723;51.698;5.344;2023-04-06T05:15:31;50.30;;;47.07;;
70312;SDS011;57723;51.698;5.344;2023-04-06T05:17:56;64.40;;;60.70;;
70312;SDS011;57723;51.698;5.344;2023-04-06T05:20:22;81.40;;;76.73;;
70312;SDS011;57723;51.698;5.344;2023-04-06T05:22:47;88.90;;;84.00;;
70312;SDS011;57723;51.698;5.344;2023-04-06T05:25:12;93.00;;;87.77;;
70312;SDS011;57723;51.698;5.344;2023-04-06T05:27:38;98.00;;;92.65;;
70312;SDS011;57723;51.698;5.344;2023-04-06T05:30:04;97.17;;;91.87;;
70312;SDS011;57723;51.698;5.344;2023-04-06T05:32:32;98.93;;;93.43;;
70312;SDS011;57723;51.698;5.344;2023-04-06T05:34:58;100.55;;;94.65;;
70312;SDS011;57723;51.698;5.344;2023-04-06T05:37:23;101.00;;;95.20;;
70312;SDS011;57723;51.698;5.344;2023-04-06T05:39:49;100.63;;;95.03;;
70312;SDS011;57723;51.698;5.344;2023-04-06T05:42:15;97.93;;;92.43;;
70312;SDS011;57723;51.698;5.344;2023-04-06T05:44:40;97.43;;;91.53;;
70312;SDS011;57723;51.698;5.344;2023-04-06T05:47:06;14.38;;;2.60;;
70312;SDS011;57723;51.698;5.344;2023-04-06T05:49:31;5.07;;;1.40;;
70312;SDS011;57723;51.698;5.344;2023-04-06T05:51:57;4.57;;;1.40;;
70312;SDS011;57723;51.698;5.344;2023-04-06T05:54:22;7.00;;;1.80;;
70312;SDS011;57723;51.698;5.344;2023-04-06T05:56:47;7.33;;;1.40;;
70312;SDS011;57723;51.698;5.344;2023-04-06T05:59:13;6.47;;;1.38;;
70312;SDS011;57723;51.698;5.344;2023-04-06T06:01:38;4.30;;;1.20;;
70312;SDS011;57723;51.698;5.344;2023-04-06T06:04:03;5.37;;;1.60;;
70312;SDS011;57723;51.698;5.344;2023-04-06T06:06:29;4.83;;;1.10;;
70312;SDS011;57723;51.698;5.344;2023-04-06T06:08:57;3.17;;;1.38;;
70312;SDS011;57723;51.698;5.344;2023-04-06T06:11:26;5.40;;;1.30;;
70312;SDS011;57723;51.698;5.344;2023-04-06T06:13:51;8.33;;;1.30;;
70312;SDS011;57723;51.698;5.344;2023-04-06T06:16:17;3.70;;;1.10;;
70312;SDS011;57723;51.698;5.344;2023-04-06T06:18:43;3.67;;;1.33;;
70312;SDS011;57723;51.698;5.344;2023-04-06T06:21:08;2.10;;;1.00;;
70312;SDS011;57723;51.698;5.344;2023-04-06T06:23:34;3.20;;;1.20;;
70312;SDS011;57723;51.698;5.344;2023-04-06T06:25:59;3.03;;;1.15;;
70312;SDS011;57723;51.698;5.344;2023-04-06T06:28:26;2.67;;;1.10;;
70312;SDS011;57723;51.698;5.344;2023-04-06T06:30:51;2.87;;;1.00;;
70312;SDS011;57723;51.698;5.344;2023-04-06T06:33:16;3.20;;;1.03;;
70312;SDS011;57723;51.698;5.344;2023-04-06T06:35:42;2.00;;;0.97;;
70312;SDS011;57723;51.698;5.344;2023-04-06T06:38:07;2.17;;;1.00;;
70312;SDS011;57723;51.698;5.344;2023-04-06T06:40:33;1.43;;;0.83;;
70312;SDS011;57723;51.698;5.344;2023-04-06T06:42:58;3.05;;;0.90;;
70312;SDS011;57723;51.698;5.344;2023-04-06T06:45:23;4.10;;;1.20;;
70312;SDS011;57723;51.698;5.344;2023-04-06T06:47:50;3.85;;;1.00;;
70312;SDS011;57723;51.698;5.344;2023-04-06T06:50:15;3.27;;;1.30;;
70312;SDS011;57723;51.698;5.344;2023-04-06T06:52:40;2.10;;;0.90;;
70312;SDS011;57723;51.698;5.344;2023-04-06T06:55:07;4.07;;;1.00;;
70312;SDS011;57723;51.698;5.344;2023-04-06T06:57:32;1.20;;;0.70;;
70312;SDS011;57723;51.698;5.344;2023-04-06T06:59:58;1.70;;;0.85;;
70312;SDS011;57723;51.698;5.344;2023-04-06T07:02:24;2.60;;;1.10;;
70312;SDS011;57723;51.698;5.344;2023-04-06T07:04:50;2.30;;;1.00;;
70312;SDS011;57723;51.698;5.344;2023-04-06T07:07:15;3.00;;;1.00;;
70312;SDS011;57723;51.698;5.344;2023-04-06T07:09:41;2.23;;;0.87;;
70312;SDS011;57723;51.698;5.344;2023-04-06T07:12:06;2.57;;;0.90;;
70312;SDS011;57723;51.698;5.344;2023-04-06T07:14:31;5.80;;;0.90;;
70312;SDS011;57723;51.698;5.344;2023-04-06T07:16:57;6.07;;;1.17;;
70312;SDS011;57723;51.698;5.344;2023-04-06T07:19:22;1.60;;;0.80;;
70312;SDS011;57723;51.698;5.344;2023-04-06T07:21:47;2.87;;;1.30;;
70312;SDS011;57723;51.698;5.344;2023-04-06T07:24:14;3.92;;;0.95;;
70312;SDS011;57723;51.698;5.344;2023-04-06T07:26:39;2.28;;;1.02;;
70312;SDS011;57723;51.698;5.344;2023-04-06T07:29:05;2.87;;;0.90;;
70312;SDS011;57723;51.698;5.344;2023-04-06T07:31:30;1.40;;;0.80;;
70312;SDS011;57723;51.698;5.344;2023-04-06T07:33:56;1.53;;;0.90;;
70312;SDS011;57723;51.698;5.344;2023-04-06T07:36:21;2.00;;;0.97;;
70312;SDS011;57723;51.698;5.344;2023-04-06T07:38:46;2.40;;;0.87;;
70312;SDS011;57723;51.698;5.344;2023-04-06T07:41:12;1.40;;;0.90;;
70312;SDS011;57723;51.698;5.344;2023-04-06T07:43:37;2.20;;;1.00;;
70312;SDS011;57723;51.698;5.344;2023-04-06T07:46:03;2.07;;;0.80;;
70312;SDS011;57723;51.698;5.344;2023-04-06T07:48:28;1.92;;;0.88;;
70312;SDS011;57723;51.698;5.344;2023-04-06T07:51:00;4.27;;;1.07;;
70312;SDS011;57723;51.698;5.344;2023-04-06T07:53:25;1.73;;;0.90;;
70312;SDS011;57723;51.698;5.344;2023-04-06T07:55:50;2.72;;;1.00;;
70312;SDS011;57723;51.698;5.344;2023-04-06T07:58:15;3.47;;;1.13;;
70312;SDS011;57723;51.698;5.344;2023-04-06T08:00:41;2.40;;;1.40;;
70312;SDS011;57723;51.698;5.344;2023-04-06T08:03:06;2.03;;;0.83;;
70312;SDS011;57723;51.698;5.344;2023-04-06T08:05:32;1.60;;;0.90;;
70312;SDS011;57723;51.698;5.344;2023-04-06T08:07:57;2.00;;;1.00;;
70312;SDS011;57723;51.698;5.344;2023-04-06T08:10:22;3.87;;;1.20;;
70312;SDS011;57723;51.698;5.344;2023-04-06T08:12:47;2.63;;;1.20;;
70312;SDS011;57723;51.698;5.344;2023-04-06T08:15:13;1.80;;;1.20;;
70312;SDS011;57723;51.698;5.344;2023-04-06T08:17:38;1.42;;;0.90;;
70312;SDS011;57723;51.698;5.344;2023-04-06T08:20:03;1.93;;;1.10;;
70312;SDS011;57723;51.698;5.344;2023-04-06T08:22:29;2.70;;;0.85;;
70312;SDS011;57723;51.698;5.344;2023-04-06T08:24:54;1.10;;;0.80;;
70312;SDS011;57723;51.698;5.344;2023-04-06T08:27:19;3.77;;;1.10;;
70312;SDS011;57723;51.698;5.344;2023-04-06T08:29:44;3.33;;;0.90;;
70312;SDS011;57723;51.698;5.344;2023-04-06T08:32:10;2.37;;;0.90;;
70312;SDS011;57723;51.698;5.344;2023-04-06T08:34:35;1.63;;;0.90;;
70312;SDS011;57723;51.698;5.344;2023-04-06T08:37:01;3.15;;;0.90;;
70312;SDS011;57723;51.698;5.344;2023-04-06T08:39:26;2.00;;;1.40;;
70312;SDS011;57723;51.698;5.344;2023-04-06T08:41:52;1.75;;;1.30;;
70312;SDS011;57723;51.698;5.344;2023-04-06T08:44:21;4.40;;;1.13;;
70312;SDS011;57723;51.698;5.344;2023-04-06T08:46:47;2.13;;;0.90;;
70312;SDS011;57723;51.698;5.344;2023-04-06T08:49:12;2.40;;;0.77;;
70312;SDS011;57723;51.698;5.344;2023-04-06T08:51:39;2.28;;;0.90;;
70312;SDS011;57723;51.698;5.344;2023-04-06T08:54:05;2.13;;;0.90;;
70312;SDS011;57723;51.698;5.344;2023-04-06T08:56:31;2.37;;;1.10;;
70312;SDS011;57723;51.698;5.344;2023-04-06T08:58:56;1.20;;;0.80;;
70312;SDS011;57723;51.698;5.344;2023-04-06T09:01:25;2.55;;;0.90;;
70312;SDS011;57723;51.698;5.344;2023-04-06T09:03:51;1.75;;;0.85;;
70312;SDS011;57723;51.698;5.344;2023-04-06T09:06:16;1.77;;;0.93;;
70312;SDS011;57723;51.698;5.344;2023-04-06T09:08:42;1.55;;;0.80;;
70312;SDS011;57723;51.698;5.344;2023-04-06T09:11:08;1.47;;;0.80;;
70312;SDS011;57723;51.698;5.344;2023-04-06T09:13:53;1.63;;;1.20;;
70312;SDS011;57723;51.698;5.344;2023-04-06T09:16:19;1.25;;;0.80;;
70312;SDS011;57723;51.698;5.344;2023-04-06T09:18:44;2.23;;;0.90;;
70312;SDS011;57723;51.698;5.344;2023-04-06T09:21:10;1.50;;;0.90;;
70312;SDS011;57723;51.698;5.344;2023-04-06T09:23:35;1.60;;;0.90;;
70312;SDS011;57723;51.698;5.344;2023-04-06T09:26:19;1.60;;;0.90;;
70312;SDS011;57723;51.698;5.344;2023-04-06T09:28:49;2.95;;;1.02;;
70312;SDS011;57723;51.698;5.344;2023-04-06T09:31:15;2.28;;;0.85;;
70312;SDS011;57723;51.698;5.344;2023-04-06T09:33:41;1.55;;;1.20;;
70312;SDS011;57723;51.698;5.344;2023-04-06T09:36:07;2.30;;;1.30;;
70312;SDS011;57723;51.698;5.344;2023-04-06T09:38:39;2.78;;;0.80;;
70312;SDS011;57723;51.698;5.344;2023-04-06T09:41:20;4.38;;;1.10;;
70312;SDS011;57723;51.698;5.344;2023-04-06T09:43:45;3.95;;;1.40;;
70312;SDS011;57723;51.698;5.344;2023-04-06T09:46:11;3.10;;;1.10;;
70312;SDS011;57723;51.698;5.344;2023-04-06T09:48:36;3.27;;;1.20;;
70312;SDS011;57723;51.698;5.344;2023-04-06T09:51:03;4.53;;;1.25;;
70312;SDS011;57723;51.698;5.344;2023-04-06T09:53:29;3.25;;;0.90;;
70312;SDS011;57723;51.698;5.344;2023-04-06T09:55:57;1.80;;;0.95;;
70312;SDS011;57723;51.698;5.344;2023-04-06T09:58:22;3.00;;;0.90;;
70312;SDS011;57723;51.698;5.344;2023-04-06T10:00:54;3.38;;;0.88;;
70312;SDS011;57723;51.698;5.344;2023-04-06T10:05:52;3.78;;;1.00;;
70312;SDS011;57723;51.698;5.344;2023-04-06T10:08:17;2.20;;;0.80;;
70312;SDS011;57723;51.698;5.344;2023-04-06T10:10:44;1.33;;;0.80;;
70312;SDS011;57723;51.698;5.344;2023-04-06T10:13:10;2.50;;;0.82;;
70312;SDS011;57723;51.698;5.344;2023-04-06T10:15:36;1.98;;;0.90;;
70312;SDS011;57723;51.698;5.344;2023-04-06T10:18:02;2.45;;;1.05;;
70312;SDS011;57723;51.698;5.344;2023-04-06T10:20:36;2.60;;;1.27;;
70312;SDS011;57723;51.698;5.344;2023-04-06T10:23:13;2.03;;;1.02;;
70312;SDS011;57723;51.698;5.344;2023-04-06T10:25:54;2.67;;;0.80;;
70312;SDS011;57723;51.698;5.344;2023-04-06T10:28:20;2.67;;;1.10;;
70312;SDS011;57723;51.698;5.344;2023-04-06T10:30:45;2.97;;;1.00;;
70312;SDS011;57723;51.698;5.344;2023-04-06T10:33:18;4.18;;;1.20;;
70312;SDS011;57723;51.698;5.344;2023-04-06T10:35:44;2.58;;;1.15;;
70312;SDS011;57723;51.698;5.344;2023-04-06T10:38:09;1.67;;;0.80;;
70312;SDS011;57723;51.698;5.344;2023-04-06T10:40:37;2.47;;;0.80;;
70312;SDS011;57723;51.698;5.344;2023-04-06T10:43:10;2.38;;;0.80;;
70312;SDS011;57723;51.698;5.344;2023-04-06T10:45:35;1.90;;;1.00;;
70312;SDS011;57723;51.698;5.344;2023-04-06T10:48:12;1.60;;;0.90;;
70312;SDS011;57723;51.698;5.344;2023-04-06T10:50:37;1.52;;;0.90;;
70312;SDS011;57723;51.698;5.344;2023-04-06T10:53:06;1.37;;;0.80;;
70312;SDS011;57723;51.698;5.344;2023-04-06T10:55:33;1.50;;;0.90;;
70312;SDS011;57723;51.698;5.344;2023-04-06T10:57:59;1.15;;;0.68;;
70312;SDS011;57723;51.698;5.344;2023-04-06T11:00:25;1.73;;;0.70;;
70312;SDS011;57723;51.698;5.344;2023-04-06T11:02:50;1.77;;;1.07;;
70312;SDS011;57723;51.698;5.344;2023-04-06T11:05:15;1.50;;;0.80;;
70312;SDS011;57723;51.698;5.344;2023-04-06T11:07:41;0.80;;;0.70;;
70312;SDS011;57723;51.698;5.344;2023-04-06T11:10:07;1.87;;;0.90;;
70312;SDS011;57723;51.698;5.344;2023-04-06T11:12:32;1.63;;;0.93;;
70312;SDS011;57723;51.698;5.344;2023-04-06T11:14:59;2.33;;;0.77;;
70312;SDS011;57723;51.698;5.344;2023-04-06T11:17:36;1.92;;;1.15;;
70312;SDS011;57723;51.698;5.344;2023-04-06T11:20:02;1.77;;;1.13;;
70312;SDS011;57723;51.698;5.344;2023-04-06T11:22:28;2.78;;;0.80;;
70312;SDS011;57723;51.698;5.344;2023-04-06T11:25:03;1.60;;;0.90;;
70312;SDS011;57723;51.698;5.344;2023-04-06T11:27:29;1.90;;;1.00;;
70312;SDS011;57723;51.698;5.344;2023-04-06T11:29:56;1.83;;;0.90;;
70312;SDS011;57723;51.698;5.344;2023-04-06T11:32:24;2.17;;;0.80;;
70312;SDS011;57723;51.698;5.344;2023-04-06T11:34:50;1.40;;;0.80;;
70312;SDS011;57723;51.698;5.344;2023-04-06T11:37:15;1.00;;;0.70;;
70312;SDS011;57723;51.698;5.344;2023-04-06T11:39:50;2.50;;;1.05;;
70312;SDS011;57723;51.698;5.344;2023-04-06T11:42:22;3.88;;;2.17;;
70312;SDS011;57723;51.698;5.344;2023-04-06T11:44:49;3.28;;;0.90;;
70312;SDS011;57723;51.698;5.344;2023-04-06T11:47:15;3.38;;;1.00;;
70312;SDS011;57723;51.698;5.344;2023-04-06T11:49:41;1.53;;;0.97;;
70312;SDS011;57723;51.698;5.344;2023-04-06T11:52:16;1.50;;;0.77;;
70312;SDS011;57723;51.698;5.344;2023-04-06T11:54:42;1.20;;;0.90;;
70312;SDS011;57723;51.698;5.344;2023-04-06T11:57:08;2.73;;;1.00;;
70312;SDS011;57723;51.698;5.344;2023-04-06T11:59:33;2.08;;;0.90;;
70312;SDS011;57723;51.698;5.344;2023-04-06T12:01:59;1.57;;;0.80;;
70312;SDS011;57723;51.698;5.344;2023-04-06T12:04:25;2.00;;;0.90;;
70312;SDS011;57723;51.698;5.344;2023-04-06T12:06:51;1.30;;;0.80;;
70312;SDS011;57723;51.698;5.344;2023-04-06T12:09:16;1.40;;;0.80;;
70312;SDS011;57723;51.698;5.344;2023-04-06T12:11:42;2.90;;;0.90;;
70312;SDS011;57723;51.698;5.344;2023-04-06T12:14:08;4.90;;;0.70;;
70312;SDS011;57723;51.698;5.344;2023-04-06T12:16:33;1.75;;;0.77;;
70312;SDS011;57723;51.698;5.344;2023-04-06T12:18:59;1.20;;;0.70;;
70312;SDS011;57723;51.698;5.344;2023-04-06T12:21:26;1.60;;;1.10;;
70312;SDS011;57723;51.698;5.344;2023-04-06T12:23:51;1.63;;;0.60;;
70312;SDS011;57723;51.698;5.344;2023-04-06T12:26:16;1.57;;;1.17;;
70312;SDS011;57723;51.698;5.344;2023-04-06T12:28:42;1.73;;;0.80;;
70312;SDS011;57723;51.698;5.344;2023-04-06T12:31:14;1.70;;;0.85;;
70312;SDS011;57723;51.698;5.344;2023-04-06T12:33:39;1.85;;;1.00;;
70312;SDS011;57723;51.698;5.344;2023-04-06T12:36:05;1.13;;;0.80;;
70312;SDS011;57723;51.698;5.344;2023-04-06T12:38:36;1.25;;;0.70;;
70312;SDS011;57723;51.698;5.344;2023-04-06T12:41:02;2.05;;;0.77;;
70312;SDS011;57723;51.698;5.344;2023-04-06T12:43:28;1.60;;;0.80;;
70312;SDS011;57723;51.698;5.344;2023-04-06T12:45:56;2.28;;;0.80;;
70312;SDS011;57723;51.698;5.344;2023-04-06T12:48:21;1.30;;;0.80;;
70312;SDS011;57723;51.698;5.344;2023-04-06T12:50:53;2.63;;;0.73;;
70312;SDS011;57723;51.698;5.344;2023-04-06T12:53:18;1.48;;;0.80;;
70312;SDS011;57723;51.698;5.344;2023-04-06T12:55:44;2.30;;;0.77;;
70312;SDS011;57723;51.698;5.344;2023-04-06T12:58:09;1.75;;;0.90;;
70312;SDS011;57723;51.698;5.344;2023-04-06T13:00:36;1.13;;;0.70;;
70312;SDS011;57723;51.698;5.344;2023-04-06T13:03:01;1.55;;;0.70;;
70312;SDS011;57723;51.698;5.344;2023-04-06T13:05:27;1.63;;;1.17;;
70312;SDS011;57723;51.698;5.344;2023-04-06T13:07:52;1.27;;;1.00;;
70312;SDS011;57723;51.698;5.344;2023-04-06T13:10:18;2.20;;;0.80;;
70312;SDS011;57723;51.698;5.344;2023-04-06T13:12:43;1.60;;;0.70;;
70312;SDS011;57723;51.698;5.344;2023-04-06T13:15:08;1.27;;;0.60;;
70312;SDS011;57723;51.698;5.344;2023-04-06T13:17:36;1.08;;;0.80;;
70312;SDS011;57723;51.698;5.344;2023-04-06T13:20:01;1.10;;;0.70;;
70312;SDS011;57723;51.698;5.344;2023-04-06T13:22:28;1.88;;;0.80;;
70312;SDS011;57723;51.698;5.344;2023-04-06T13:24:54;0.93;;;0.60;;
70312;SDS011;57723;51.698;5.344;2023-04-06T13:27:19;1.20;;;0.80;;
70312;SDS011;57723;51.698;5.344;2023-04-06T13:29:44;1.23;;;0.70;;
70312;SDS011;57723;51.698;5.344;2023-04-06T13:32:10;1.00;;;0.67;;
70312;SDS011;57723;51.698;5.344;2023-04-06T13:34:35;1.90;;;0.82;;
70312;SDS011;57723;51.698;5.344;2023-04-06T13:37:00;1.67;;;0.73;;
70312;SDS011;57723;51.698;5.344;2023-04-06T13:39:26;0.90;;;0.60;;
70312;SDS011;57723;51.698;5.344;2023-04-06T13:41:52;1.37;;;0.50;;
70312;SDS011;57723;51.698;5.344;2023-04-06T13:44:18;1.50;;;0.80;;
70312;SDS011;57723;51.698;5.344;2023-04-06T13:46:44;0.60;;;0.50;;
70312;SDS011;57723;51.698;5.344;2023-04-06T13:49:10;1.57;;;0.83;;
70312;SDS011;57723;51.698;5.344;2023-04-06T13:51:35;0.98;;;0.68;;
70312;SDS011;57723;51.698;5.344;2023-04-06T13:54:01;1.20;;;0.77;;
70312;SDS011;57723;51.698;5.344;2023-04-06T13:56:26;1.20;;;1.03;;
70312;SDS011;57723;51.698;5.344;2023-04-06T13:58:53;1.10;;;1.00;;
70312;SDS011;57723;51.698;5.344;2023-04-06T14:01:18;1.20;;;0.70;;
70312;SDS011;57723;51.698;5.344;2023-04-06T14:03:44;1.27;;;0.73;;
70312;SDS011;57723;51.698;5.344;2023-04-06T14:06:12;0.93;;;0.70;;
70312;SDS011;57723;51.698;5.344;2023-04-06T14:08:37;0.82;;;0.70;;
70312;SDS011;57723;51.698;5.344;2023-04-06T14:11:03;0.90;;;0.63;;
70312;SDS011;57723;51.698;5.344;2023-04-06T14:13:28;1.00;;;0.70;;
70312;SDS011;57723;51.698;5.344;2023-04-06T14:15:53;3.03;;;0.70;;
70312;SDS011;57723;51.698;5.344;2023-04-06T14:18:20;0.68;;;0.52;;
70312;SDS011;57723;51.698;5.344;2023-04-06T14:20:53;1.20;;;0.70;;
70312;SDS011;57723;51.698;5.344;2023-04-06T14:23:18;0.85;;;0.60;;
70312;SDS011;57723;51.698;5.344;2023-04-06T14:25:43;0.75;;;0.63;;
70312;SDS011;57723;51.698;5.344;2023-04-06T14:28:09;0.97;;;0.60;;
70312;SDS011;57723;51.698;5.344;2023-04-06T14:30:34;1.20;;;0.70;;
70312;SDS011;57723;51.698;5.344;2023-04-06T14:33:00;0.90;;;0.63;;
70312;SDS011;57723;51.698;5.344;2023-04-06T14:35:25;1.25;;;0.70;;
70312;SDS011;57723;51.698;5.344;2023-04-06T14:37:52;2.00;;;0.70;;
70312;SDS011;57723;51.698;5.344;2023-04-06T14:40:18;0.93;;;0.60;;
70312;SDS011;57723;51.698;5.344;2023-04-06T14:42:43;0.97;;;0.70;;